Terminal Aerodrome Forecast
Issued by NWS

Home | Current Version | Previous Version | Text Only | Print | Product List | Glossary On
Versions: 1 2 3 4 5 6 7 8 9 10 11 12 13 14 15
338
FTUS45 KMSO 230243 AAA
TAFSMN
TAF AMD
KSMN 230243Z 2303/2324 23010KT 3/4SM -SN BR BKN008 OVC040
     FM230400 VRB03KT 2SM -SHSN BR OVC030
     FM230700 VRB03KT P6SM VCSH OVC030=

USA.gov is the U.S. government's official web portal to all federal, state and local government web resources and services.